createdAt,value
2023-04-16T00:00:57.672Z,18.70
2023-04-16T00:01:57.769Z,21.30
2023-04-16T00:02:57.789Z,19.60
2023-04-16T00:03:57.836Z,19.80
2023-04-16T00:04:57.645Z,20.60
2023-04-16T00:05:57.641Z,18.80
2023-04-16T00:06:57.603Z,19.60
2023-04-16T00:07:57.587Z,20.30
2023-04-16T00:08:57.571Z,20.60
2023-04-16T00:09:57.552Z,19.50
2023-04-16T00:10:57.548Z,18.50
2023-04-16T00:11:57.558Z,21.10
2023-04-16T00:12:57.521Z,22.90
2023-04-16T00:13:57.536Z,22.00
2023-04-16T00:14:57.494Z,23.00
2023-04-16T00:15:57.495Z,26.00
2023-04-16T00:16:57.499Z,31.30
2023-04-16T00:17:57.540Z,26.00
2023-04-16T00:18:57.438Z,17.00
2023-04-16T00:19:57.429Z,19.60
2023-04-16T00:20:57.413Z,21.10
2023-04-16T00:21:57.388Z,18.50
2023-04-16T00:22:57.411Z,18.20
2023-04-16T00:23:57.371Z,19.90
2023-04-16T00:24:57.364Z,21.80
2023-04-16T00:25:57.367Z,17.20
2023-04-16T00:26:57.341Z,19.30
2023-04-16T00:27:57.348Z,18.70
2023-04-16T00:28:57.320Z,22.90
2023-04-16T00:29:57.305Z,18.20
2023-04-16T00:30:57.342Z,23.80
2023-04-16T00:31:57.268Z,24.40
2023-04-16T00:32:57.294Z,25.10
2023-04-16T00:33:57.271Z,20.10
2023-04-16T00:34:57.230Z,18.10
2023-04-16T00:35:57.224Z,19.00
2023-04-16T00:36:57.202Z,19.20
2023-04-16T00:37:57.213Z,19.90
2023-04-16T00:38:57.252Z,21.30
2023-04-16T00:39:57.171Z,17.10
2023-04-16T00:40:57.149Z,23.60
2023-04-16T00:41:57.136Z,20.30
2023-04-16T00:42:57.134Z,23.10
2023-04-16T00:43:57.113Z,16.40
2023-04-16T00:44:57.131Z,17.80
2023-04-16T00:45:57.125Z,22.50
2023-04-16T00:46:57.097Z,19.60
2023-04-16T00:47:58.774Z,16.80
2023-04-16T00:48:57.065Z,21.70
2023-04-16T00:49:57.082Z,24.90
2023-04-16T00:50:57.061Z,25.20
2023-04-16T00:51:57.018Z,19.40
2023-04-16T00:52:57.001Z,24.50
2023-04-16T00:53:56.985Z,23.90
2023-04-16T00:54:56.982Z,24.30
2023-04-16T00:55:56.987Z,25.00
2023-04-16T00:56:56.951Z,20.80
2023-04-16T00:57:57.001Z,23.30
2023-04-16T00:58:56.923Z,24.30
2023-04-16T00:59:56.919Z,23.00
2023-04-16T01:00:56.903Z,21.40
2023-04-16T01:01:56.974Z,24.00
2023-04-16T01:02:57.157Z,22.00
2023-04-16T01:03:57.106Z,17.80
2023-04-16T01:04:56.863Z,21.80
2023-04-16T01:05:56.829Z,22.70
2023-04-16T01:06:56.883Z,21.50
2023-04-16T01:07:56.847Z,24.00
2023-04-16T01:08:56.792Z,18.80
2023-04-16T01:09:56.775Z,26.60
2023-04-16T01:10:56.773Z,21.20
2023-04-16T01:11:56.778Z,24.80
2023-04-16T01:12:56.771Z,23.00
2023-04-16T01:13:56.740Z,23.90
2023-04-16T01:14:56.707Z,24.80
2023-04-16T01:15:56.813Z,22.40
2023-04-16T01:16:56.704Z,21.00
2023-04-16T01:17:56.773Z,25.70
2023-04-16T01:18:56.666Z,21.10
2023-04-16T01:19:56.680Z,21.10
2023-04-16T01:20:56.688Z,24.40
2023-04-16T01:21:56.638Z,26.70
2023-04-16T01:22:56.606Z,21.90
2023-04-16T01:23:56.634Z,22.70
2023-04-16T01:24:56.602Z,24.70
2023-04-16T01:25:56.573Z,22.40
2023-04-16T01:26:56.579Z,22.60
2023-04-16T01:27:56.583Z,20.70
2023-04-16T01:28:56.538Z,21.30
2023-04-16T01:29:56.535Z,23.80
2023-04-16T01:30:56.559Z,18.80
2023-04-16T01:31:56.495Z,23.10
2023-04-16T01:32:56.565Z,23.90
2023-04-16T01:33:56.472Z,26.20
2023-04-16T01:34:56.518Z,22.60
2023-04-16T01:35:56.448Z,23.20
2023-04-16T01:36:56.439Z,24.90
2023-04-16T01:37:56.414Z,24.20
2023-04-16T01:38:56.429Z,23.10
2023-04-16T01:39:56.396Z,24.30
2023-04-16T01:40:56.413Z,24.00
2023-04-16T01:41:56.368Z,23.40
2023-04-16T01:42:56.354Z,24.50
2023-04-16T01:43:56.337Z,26.50
2023-04-16T01:44:56.334Z,24.60
2023-04-16T01:45:56.320Z,27.00
2023-04-16T01:46:56.439Z,23.80
2023-04-16T01:47:56.329Z,26.70
2023-04-16T01:48:56.306Z,24.80
2023-04-16T01:49:56.333Z,26.80
2023-04-16T01:50:56.256Z,21.60
2023-04-16T01:51:56.246Z,22.40
2023-04-16T01:52:56.231Z,24.70
2023-04-16T01:53:56.216Z,27.70
2023-04-16T01:54:56.256Z,28.10
2023-04-16T01:55:56.183Z,21.60
2023-04-16T01:56:56.212Z,31.20
2023-04-16T01:57:56.187Z,22.60
2023-04-16T01:58:56.180Z,25.50
2023-04-16T01:59:56.145Z,25.50
2023-04-16T02:00:56.142Z,22.20
2023-04-16T02:01:56.235Z,25.20
2023-04-16T02:02:56.315Z,24.40
2023-04-16T02:03:56.212Z,22.10
2023-04-16T02:04:56.076Z,23.50
2023-04-16T02:05:56.065Z,30.00
2023-04-16T02:06:56.047Z,26.70
2023-04-16T02:07:56.065Z,25.10
2023-04-16T02:08:56.034Z,28.80
2023-04-16T02:09:56.014Z,25.40
2023-04-16T02:10:56.002Z,25.60
2023-04-16T02:11:55.985Z,25.90
2023-04-16T02:12:56.039Z,29.60
2023-04-16T02:13:55.946Z,28.00
2023-04-16T02:14:55.943Z,29.40
2023-04-16T02:15:55.931Z,26.80
2023-04-16T02:16:56.004Z,25.90
2023-04-16T02:17:55.980Z,27.20
2023-04-16T02:18:55.896Z,27.20
2023-04-16T02:19:55.871Z,24.50
2023-04-16T02:20:55.857Z,26.40
2023-04-16T02:21:55.848Z,30.20
2023-04-16T02:22:55.836Z,30.10
2023-04-16T02:23:56.003Z,24.50
2023-04-16T02:24:55.818Z,25.90
2023-04-16T02:25:55.829Z,27.70
2023-04-16T02:26:55.787Z,32.60
2023-04-16T02:27:55.772Z,35.40
2023-04-16T02:28:55.792Z,31.20
2023-04-16T02:29:55.753Z,26.50
2023-04-16T02:30:55.737Z,26.50
2023-04-16T02:31:55.765Z,35.10
2023-04-16T02:32:55.733Z,28.40
2023-04-16T02:33:55.699Z,25.70
2023-04-16T02:34:55.714Z,32.30
2023-04-16T02:35:55.666Z,33.00
2023-04-16T02:36:55.659Z,34.60
2023-04-16T02:37:55.688Z,27.20
2023-04-16T02:38:55.620Z,27.70
2023-04-16T02:39:55.620Z,32.60
2023-04-16T02:40:55.604Z,29.10
2023-04-16T02:41:55.584Z,32.20
2023-04-16T02:42:55.620Z,38.20
2023-04-16T02:43:55.584Z,33.20
2023-04-16T02:44:55.582Z,30.30
2023-04-16T02:45:55.574Z,33.00
2023-04-16T02:46:55.526Z,26.90
2023-04-16T02:47:55.574Z,32.20
2023-04-16T02:48:55.497Z,24.40
2023-04-16T02:49:55.472Z,29.40
2023-04-16T02:50:55.543Z,31.50
2023-04-16T02:51:55.460Z,34.80
2023-04-16T02:52:55.449Z,31.20
2023-04-16T02:53:55.439Z,32.10
2023-04-16T02:54:55.460Z,30.40
2023-04-16T02:55:55.434Z,35.00
2023-04-16T02:56:55.421Z,32.20
2023-04-16T02:57:55.383Z,32.50
2023-04-16T02:58:55.374Z,31.60
2023-04-16T02:59:55.361Z,35.90
2023-04-16T03:00:55.395Z,33.90
2023-04-16T03:01:55.546Z,36.00
2023-04-16T03:04:16.803Z,31.30
2023-04-16T03:05:04.226Z,27.90
2023-04-16T03:06:04.206Z,36.70
2023-04-16T03:07:04.231Z,35.30
2023-04-16T03:08:04.216Z,37.40
2023-04-16T03:09:04.178Z,30.80
2023-04-16T03:10:04.159Z,38.00
2023-04-16T03:11:04.156Z,35.80
2023-04-16T03:12:04.130Z,31.50
2023-04-16T03:13:04.138Z,37.70
2023-04-16T03:14:04.148Z,37.90
2023-04-16T03:15:04.095Z,37.40
2023-04-16T03:16:04.111Z,35.00
2023-04-16T03:17:04.079Z,31.90
2023-04-16T03:18:04.147Z,34.70
2023-04-16T03:19:04.092Z,31.30
2023-04-16T03:20:04.021Z,38.60
2023-04-16T03:21:04.032Z,32.10
2023-04-16T03:22:04.014Z,33.00
2023-04-16T03:23:03.989Z,33.90
2023-04-16T03:24:04.006Z,35.90
2023-04-16T03:25:03.978Z,36.00
2023-04-16T03:26:03.963Z,34.10
2023-04-16T03:27:03.948Z,35.20
2023-04-16T03:28:03.968Z,36.90
2023-04-16T03:29:03.928Z,34.70
2023-04-16T03:30:03.928Z,36.10
2023-04-16T03:31:03.922Z,33.80
2023-04-16T03:32:03.901Z,37.50
2023-04-16T03:33:03.870Z,33.40
2023-04-16T03:34:03.862Z,34.70
2023-04-16T03:35:03.848Z,35.70
2023-04-16T03:36:03.844Z,34.10
2023-04-16T03:37:03.806Z,30.10
2023-04-16T03:38:03.794Z,27.00
2023-04-16T03:39:03.797Z,33.80
2023-04-16T03:40:03.802Z,34.10
2023-04-16T03:41:03.787Z,29.50
2023-04-16T03:42:03.798Z,32.30
2023-04-16T03:43:03.759Z,30.10
2023-04-16T03:44:03.767Z,34.60
2023-04-16T03:45:03.713Z,30.40
2023-04-16T03:46:03.771Z,31.60
2023-04-16T03:47:03.703Z,29.70
2023-04-16T03:48:03.677Z,28.60
2023-04-16T03:49:03.670Z,33.10
2023-04-16T03:50:03.681Z,34.20
2023-04-16T03:51:03.620Z,32.20
2023-04-16T03:52:03.731Z,32.20
2023-04-16T03:53:03.625Z,39.50
2023-04-16T03:54:03.630Z,35.80
2023-04-16T03:55:03.586Z,36.80
2023-04-16T03:56:03.667Z,32.70
2023-04-16T03:57:03.631Z,34.50
2023-04-16T03:58:03.659Z,35.90
2023-04-16T03:59:03.570Z,35.10
2023-04-16T04:00:03.548Z,28.30
2023-04-16T04:01:03.518Z,32.60
2023-04-16T04:02:03.563Z,35.80
2023-04-16T04:03:03.634Z,33.10
2023-04-16T04:04:03.562Z,38.90
2023-04-16T04:05:03.640Z,38.60
2023-04-16T04:06:03.441Z,35.60
2023-04-16T04:07:03.434Z,37.20
2023-04-16T04:08:03.421Z,34.20
2023-04-16T04:09:03.407Z,37.70
2023-04-16T04:10:03.463Z,38.00
2023-04-16T04:11:03.379Z,34.80
2023-04-16T04:12:03.370Z,35.80
2023-04-16T04:13:03.356Z,40.60
2023-04-16T04:14:03.368Z,36.20
2023-04-16T04:15:03.352Z,37.00
2023-04-16T04:16:03.357Z,38.00
2023-04-16T04:17:03.297Z,37.30
2023-04-16T04:18:03.324Z,39.90
2023-04-16T04:19:03.289Z,42.30
2023-04-16T04:20:03.266Z,43.80
2023-04-16T04:21:03.253Z,42.30
2023-04-16T04:22:03.241Z,41.50
2023-04-16T04:23:03.222Z,37.30
2023-04-16T04:24:03.247Z,40.50
2023-04-16T04:25:03.198Z,39.10
2023-04-16T04:26:03.237Z,39.50
2023-04-16T04:27:03.170Z,37.40
2023-04-16T04:28:03.157Z,32.20
2023-04-16T04:29:03.160Z,43.60
2023-04-16T04:30:03.125Z,41.00
2023-04-16T04:31:03.113Z,39.30
2023-04-16T04:32:03.138Z,43.40
2023-04-16T04:33:03.114Z,46.10
2023-04-16T04:34:03.097Z,41.00
2023-04-16T04:35:03.064Z,43.80
2023-04-16T04:36:03.079Z,42.50
2023-04-16T04:37:03.044Z,44.50
2023-04-16T04:38:03.075Z,43.90
2023-04-16T04:39:03.036Z,41.80
2023-04-16T04:40:02.994Z,46.50
2023-04-16T04:41:03.026Z,39.60
2023-04-16T04:42:02.989Z,40.40
2023-04-16T04:43:02.969Z,45.00
2023-04-16T04:44:02.954Z,42.20
2023-04-16T04:45:02.930Z,42.20
2023-04-16T04:46:02.984Z,43.30
2023-04-16T04:47:02.920Z,38.90
2023-04-16T04:48:02.938Z,45.00
2023-04-16T04:49:02.907Z,43.80
2023-04-16T04:50:02.881Z,44.90
2023-04-16T04:51:04.818Z,46.10
2023-04-16T04:52:02.852Z,41.30
2023-04-16T04:53:02.875Z,41.30
2023-04-16T04:54:02.823Z,38.90
2023-04-16T04:55:02.815Z,42.30
2023-04-16T04:56:12.372Z,43.60
2023-04-16T04:57:03.799Z,47.00
2023-04-16T04:58:02.766Z,39.20
2023-04-16T04:59:02.856Z,38.10
2023-04-16T05:00:02.741Z,44.50
2023-04-16T05:01:02.776Z,38.50
2023-04-16T05:02:02.758Z,35.90
2023-04-16T05:03:02.751Z,44.00
2023-04-16T05:04:02.750Z,43.20
2023-04-16T05:05:02.702Z,41.70
2023-04-16T05:06:02.669Z,37.40
2023-04-16T05:07:02.664Z,42.70
2023-04-16T05:08:02.644Z,44.70
2023-04-16T05:09:02.642Z,41.50
2023-04-16T05:10:02.653Z,44.90
2023-04-16T05:11:02.600Z,40.20
2023-04-16T05:12:02.610Z,37.90
2023-04-16T05:13:02.583Z,43.40
2023-04-16T05:14:02.572Z,42.20
2023-04-16T05:15:02.562Z,37.70
2023-04-16T05:16:02.668Z,40.80
2023-04-16T05:17:02.575Z,43.70
2023-04-16T05:18:02.578Z,43.70
2023-04-16T05:19:02.546Z,42.90
2023-04-16T05:20:02.517Z,49.90
2023-04-16T05:21:02.474Z,44.80
2023-04-16T05:22:02.495Z,37.70
2023-04-16T05:23:02.450Z,40.50
2023-04-16T05:24:02.423Z,45.50
2023-04-16T05:25:02.443Z,45.20
2023-04-16T05:26:02.401Z,43.50
2023-04-16T05:27:02.393Z,41.80
2023-04-16T05:28:02.429Z,39.30
2023-04-16T05:29:02.369Z,38.30
2023-04-16T05:30:02.379Z,43.20
2023-04-16T05:31:02.376Z,36.90
2023-04-16T05:32:02.365Z,44.40
2023-04-16T05:33:02.316Z,45.90
2023-04-16T05:34:02.332Z,42.50
2023-04-16T05:35:02.297Z,38.90
2023-04-16T05:36:02.281Z,43.10
2023-04-16T05:37:02.254Z,43.30
2023-04-16T05:38:02.327Z,46.10
2023-04-16T05:39:02.247Z,38.30
2023-04-16T05:40:02.230Z,41.20
2023-04-16T05:41:02.226Z,42.60
2023-04-16T05:42:02.230Z,37.40
2023-04-16T05:43:02.216Z,41.40
2023-04-16T05:44:02.210Z,38.60
2023-04-16T05:45:02.168Z,43.20
2023-04-16T05:46:02.235Z,45.90
2023-04-16T05:47:02.142Z,50.00
2023-04-16T05:48:02.163Z,37.10
2023-04-16T05:49:02.133Z,42.90
2023-04-16T05:50:02.103Z,46.90
2023-04-16T05:51:02.084Z,43.20
2023-04-16T05:52:02.060Z,40.20
2023-04-16T05:53:02.067Z,42.20
2023-04-16T05:54:02.079Z,38.80
2023-04-16T05:55:02.201Z,40.00
2023-04-16T05:56:02.048Z,43.70
2023-04-16T05:57:02.069Z,44.60
2023-04-16T05:58:02.008Z,47.90
2023-04-16T05:59:02.013Z,49.50
2023-04-16T06:00:02.033Z,41.40
2023-04-16T06:01:01.992Z,45.50
2023-04-16T06:02:01.979Z,39.20
2023-04-16T06:03:02.080Z,45.30
2023-04-16T06:04:02.118Z,44.20
2023-04-16T06:05:01.993Z,40.40
2023-04-16T06:06:01.953Z,40.00
2023-04-16T06:07:01.904Z,45.90
2023-04-16T06:08:01.873Z,43.40
2023-04-16T06:09:01.903Z,42.30
2023-04-16T06:10:01.876Z,42.20
2023-04-16T06:11:01.821Z,48.10
2023-04-16T06:12:01.822Z,50.50
2023-04-16T06:13:01.812Z,47.30
2023-04-16T06:14:01.793Z,39.50
2023-04-16T06:15:01.801Z,44.40
2023-04-16T06:16:01.821Z,42.20
2023-04-16T06:17:01.775Z,41.30
2023-04-16T06:18:01.772Z,43.90
2023-04-16T06:19:01.747Z,42.10
2023-04-16T06:20:01.758Z,45.20
2023-04-16T06:21:01.705Z,47.40
2023-04-16T06:22:01.688Z,39.90
2023-04-16T06:23:01.676Z,40.50
2023-04-16T06:24:01.700Z,43.60
2023-04-16T06:25:01.701Z,41.30
2023-04-16T06:26:01.639Z,45.10
2023-04-16T06:27:01.721Z,41.80
2023-04-16T06:28:01.601Z,43.60
2023-04-16T06:29:01.606Z,45.70
2023-04-16T06:30:01.590Z,45.20
2023-04-16T06:31:01.600Z,40.20
2023-04-16T06:32:01.570Z,38.60
2023-04-16T06:33:01.590Z,41.10
2023-04-16T06:34:01.527Z,42.80
2023-04-16T06:35:01.536Z,38.50
2023-04-16T06:36:01.507Z,47.70
2023-04-16T06:37:01.539Z,48.60
2023-04-16T06:38:01.470Z,40.40
2023-04-16T06:39:01.463Z,40.50
2023-04-16T06:40:01.455Z,44.30
2023-04-16T06:41:01.435Z,35.40
2023-04-16T06:42:01.443Z,38.00
2023-04-16T06:43:01.415Z,49.90
2023-04-16T06:44:01.408Z,37.10
2023-04-16T06:45:01.575Z,45.40
2023-04-16T06:46:01.372Z,43.10
2023-04-16T06:47:01.405Z,42.30
2023-04-16T06:48:01.427Z,45.90
2023-04-16T06:49:01.406Z,42.30
2023-04-16T06:50:01.344Z,49.10
2023-04-16T06:51:01.311Z,46.50
2023-04-16T06:52:02.443Z,44.20
2023-04-16T06:53:01.306Z,47.20
2023-04-16T06:54:01.261Z,45.20
2023-04-16T06:55:01.294Z,42.40
2023-04-16T06:56:01.250Z,49.60
2023-04-16T06:57:01.227Z,41.50
2023-04-16T06:58:01.250Z,48.80
2023-04-16T06:59:01.206Z,47.10
2023-04-16T07:00:01.186Z,43.40
2023-04-16T07:01:01.186Z,43.50
2023-04-16T07:02:01.281Z,41.20
2023-04-16T07:03:01.299Z,47.80
2023-04-16T07:04:01.353Z,47.60
2023-04-16T07:05:01.125Z,46.10
2023-04-16T07:06:01.121Z,48.10
2023-04-16T07:07:01.106Z,44.80
2023-04-16T07:08:01.095Z,44.80
2023-04-16T07:09:01.083Z,42.10
2023-04-16T07:10:01.137Z,43.50
2023-04-16T07:11:01.070Z,42.80
2023-04-16T07:12:01.044Z,43.70
2023-04-16T07:13:01.025Z,41.90
2023-04-16T07:14:01.017Z,36.00
2023-04-16T07:15:01.015Z,49.00
2023-04-16T07:16:01.021Z,45.00
2023-04-16T07:17:00.976Z,44.10
2023-04-16T07:18:00.999Z,40.90
2023-04-16T07:19:00.944Z,39.00
2023-04-16T07:20:01.061Z,41.10
2023-04-16T07:21:00.928Z,46.30
2023-04-16T07:22:00.906Z,46.80
2023-04-16T07:23:00.901Z,42.00
2023-04-16T07:24:00.931Z,43.00
2023-04-16T07:25:00.880Z,46.30
2023-04-16T07:26:00.931Z,38.70
2023-04-16T07:27:00.843Z,41.80
2023-04-16T07:28:00.828Z,44.20
2023-04-16T07:29:00.819Z,44.70
2023-04-16T07:30:00.866Z,42.90
2023-04-16T07:31:00.814Z,45.00
2023-04-16T07:32:00.799Z,37.80
2023-04-16T07:33:00.813Z,41.00
2023-04-16T07:34:00.766Z,38.90
2023-04-16T07:35:00.757Z,37.70
2023-04-16T07:36:00.756Z,40.30
2023-04-16T07:37:00.717Z,40.50
2023-04-16T07:38:00.719Z,38.30
2023-04-16T07:39:00.687Z,42.00
2023-04-16T07:40:00.720Z,46.20
2023-04-16T07:41:00.694Z,38.70
2023-04-16T07:42:00.650Z,37.20
2023-04-16T07:43:00.637Z,44.40
2023-04-16T07:44:00.642Z,42.70
2023-04-16T07:45:00.607Z,41.10
2023-04-16T07:46:00.663Z,41.70
2023-04-16T07:47:01.321Z,40.80
2023-04-16T07:48:00.593Z,50.90
2023-04-16T07:49:00.558Z,44.00
2023-04-16T07:50:00.546Z,36.10
2023-04-16T07:51:00.578Z,46.50
2023-04-16T07:52:00.551Z,41.10
2023-04-16T07:53:00.523Z,36.10
2023-04-16T07:54:00.514Z,40.30
2023-04-16T07:55:00.491Z,40.80
2023-04-16T07:56:00.501Z,37.90
2023-04-16T07:57:00.457Z,45.90
2023-04-16T07:58:00.460Z,44.00
2023-04-16T07:59:07.944Z,41.20
2023-04-16T08:00:01.417Z,42.80
2023-04-16T08:01:00.409Z,41.90
2023-04-16T08:02:00.498Z,43.30
2023-04-16T08:03:00.545Z,39.50
2023-04-16T08:04:00.565Z,36.20
2023-04-16T08:05:00.398Z,34.10
2023-04-16T08:06:00.380Z,36.50
2023-04-16T08:07:00.333Z,38.60
2023-04-16T08:08:00.403Z,41.30
2023-04-16T08:09:00.301Z,40.70
2023-04-16T08:10:00.289Z,41.30
2023-04-16T08:11:00.278Z,38.70
2023-04-16T08:12:00.273Z,38.20
2023-04-16T08:13:00.246Z,42.10
2023-04-16T08:14:00.285Z,44.00
2023-04-16T08:15:00.222Z,44.90
2023-04-16T08:16:00.264Z,36.20
2023-04-16T08:17:00.207Z,36.40
2023-04-16T08:18:00.348Z,33.70
2023-04-16T08:19:00.234Z,43.50
2023-04-16T08:20:00.183Z,46.80
2023-04-16T08:21:00.177Z,37.70
2023-04-16T08:22:00.152Z,39.00
2023-04-16T08:23:00.158Z,40.30
2023-04-16T08:24:00.145Z,40.50
2023-04-16T08:25:00.213Z,40.10
2023-04-16T08:26:00.081Z,37.00
2023-04-16T08:27:08.108Z,38.00
2023-04-16T08:28:01.068Z,35.70
2023-04-16T08:29:00.064Z,37.90
2023-04-16T08:30:00.109Z,38.80
2023-04-16T08:31:00.044Z,38.60
2023-04-16T08:32:00.044Z,36.90
2023-04-16T08:33:00.083Z,37.20
2023-04-16T08:33:59.981Z,40.10
2023-04-16T08:34:59.991Z,37.80
2023-04-16T08:35:59.965Z,33.70
2023-04-16T08:36:59.936Z,35.60
2023-04-16T08:38:02.186Z,39.00
2023-04-16T08:38:59.910Z,35.10
2023-04-16T08:39:59.899Z,39.30
2023-04-16T08:40:59.915Z,28.70
2023-04-16T08:41:59.888Z,31.30
2023-04-16T08:42:59.859Z,31.80
2023-04-16T08:43:59.854Z,36.50
2023-04-16T08:44:59.840Z,31.50
2023-04-16T08:45:59.862Z,33.30
2023-04-16T08:46:59.918Z,32.00
2023-04-16T08:47:59.820Z,29.90
2023-04-16T08:48:59.788Z,31.20
2023-04-16T08:49:59.797Z,33.10
2023-04-16T08:50:59.752Z,35.40
2023-04-16T08:51:59.786Z,33.10
2023-04-16T08:52:59.803Z,29.80
2023-04-16T08:53:59.722Z,31.80
2023-04-16T08:54:59.707Z,32.40
2023-04-16T08:55:59.682Z,30.40
2023-04-16T08:56:59.735Z,32.50
2023-04-16T08:57:59.665Z,36.10
2023-04-16T08:58:59.654Z,31.50
2023-04-16T08:59:59.653Z,28.40
2023-04-16T09:00:59.629Z,31.10
2023-04-16T09:01:59.855Z,27.00
2023-04-16T09:02:59.714Z,33.00
2023-04-16T09:03:59.683Z,28.70
2023-04-16T09:04:59.714Z,31.00
2023-04-16T09:05:59.573Z,28.50
2023-04-16T09:06:59.613Z,32.40
2023-04-16T09:07:59.589Z,28.70
2023-04-16T09:08:59.534Z,29.60
2023-04-16T09:09:59.545Z,29.80
2023-04-16T09:10:59.515Z,28.20
2023-04-16T09:11:59.496Z,32.50
2023-04-16T09:12:59.487Z,27.70
2023-04-16T09:13:59.463Z,30.10
2023-04-16T09:14:59.646Z,30.20
2023-04-16T09:15:59.461Z,32.10
2023-04-16T09:16:59.422Z,31.50
2023-04-16T09:17:59.443Z,30.20
2023-04-16T09:18:59.419Z,26.60
2023-04-16T09:19:59.376Z,28.80
2023-04-16T09:20:59.367Z,30.90
2023-04-16T09:21:59.356Z,29.60
2023-04-16T09:22:59.342Z,26.70
2023-04-16T09:23:59.326Z,30.00
2023-04-16T09:24:59.361Z,28.10
2023-04-16T09:25:59.310Z,33.10
2023-04-16T09:26:59.286Z,30.50
2023-04-16T09:27:59.281Z,31.70
2023-04-16T09:28:59.292Z,29.60
2023-04-16T09:29:59.397Z,28.40
2023-04-16T09:30:59.228Z,34.70
2023-04-16T09:31:59.249Z,25.40
2023-04-16T09:32:59.310Z,28.80
2023-04-16T09:33:59.200Z,29.10
2023-04-16T09:34:59.213Z,33.20
2023-04-16T09:35:59.172Z,23.00
2023-04-16T09:36:59.154Z,29.00
2023-04-16T09:37:59.190Z,29.50
2023-04-16T09:38:59.132Z,29.70
2023-04-16T09:39:59.130Z,27.50
2023-04-16T09:40:59.121Z,27.40
2023-04-16T09:41:59.101Z,30.90
2023-04-16T09:42:59.084Z,28.40
2023-04-16T09:43:59.094Z,26.10
2023-04-16T09:45:00.772Z,32.80
2023-04-16T09:45:59.092Z,31.00
2023-04-16T09:46:59.040Z,27.50
2023-04-16T09:47:59.045Z,27.60
2023-04-16T09:48:59.063Z,33.40
2023-04-16T09:49:58.994Z,28.60
2023-04-16T09:50:59.070Z,28.70
2023-04-16T09:51:58.974Z,29.50
2023-04-16T09:52:58.958Z,27.60
2023-04-16T09:53:58.940Z,34.70
2023-04-16T09:54:58.935Z,30.00
2023-04-16T09:55:58.946Z,26.50
2023-04-16T09:56:58.906Z,26.70
2023-04-16T09:57:58.895Z,29.70
2023-04-16T09:58:58.924Z,29.00
2023-04-16T09:59:58.861Z,25.60
2023-04-16T10:00:58.901Z,28.90
2023-04-16T10:02:14.483Z,29.50
2023-04-16T10:02:59.948Z,27.50
2023-04-16T10:03:58.896Z,26.70
2023-04-16T10:04:58.892Z,29.80
2023-04-16T10:05:58.812Z,27.20
2023-04-16T10:06:58.813Z,28.60
2023-04-16T10:07:58.762Z,29.50
2023-04-16T10:08:58.754Z,26.70
2023-04-16T10:09:58.770Z,26.90
2023-04-16T10:10:58.733Z,27.30
2023-04-16T10:11:58.747Z,30.20
2023-04-16T10:12:58.724Z,28.00
2023-04-16T10:13:58.720Z,27.90
2023-04-16T10:14:58.690Z,27.80
2023-04-16T10:15:58.658Z,26.40
2023-04-16T10:16:58.720Z,28.70
2023-04-16T10:17:58.645Z,25.80
2023-04-16T10:18:58.660Z,26.00
2023-04-16T10:19:58.622Z,28.50
2023-04-16T10:20:58.595Z,27.70
2023-04-16T10:21:58.585Z,28.40
2023-04-16T10:22:58.598Z,27.80
2023-04-16T10:23:58.558Z,25.40
2023-04-16T10:24:58.537Z,27.30
2023-04-16T10:25:58.527Z,28.50
2023-04-16T10:26:58.509Z,31.80
2023-04-16T10:27:58.533Z,26.60
2023-04-16T10:28:58.505Z,28.70
2023-04-16T10:29:58.488Z,28.50
2023-04-16T10:30:58.496Z,27.60
2023-04-16T10:31:58.457Z,32.10
2023-04-16T10:33:00.553Z,29.60
2023-04-16T10:33:58.475Z,25.30
2023-04-16T10:34:58.416Z,29.50
2023-04-16T10:36:07.028Z,31.60
2023-04-16T10:36:59.391Z,26.40
2023-04-16T10:37:58.402Z,26.80
2023-04-16T10:38:58.397Z,27.20
2023-04-16T10:39:58.353Z,30.00
2023-04-16T10:40:58.367Z,28.50
2023-04-16T10:41:58.328Z,30.30
2023-04-16T10:42:58.352Z,28.70
2023-04-16T10:43:58.313Z,29.20
2023-04-16T10:44:58.276Z,24.40
2023-04-16T10:45:58.345Z,24.50
2023-04-16T10:46:58.266Z,29.90
2023-04-16T10:47:58.319Z,26.90
2023-04-16T10:48:58.261Z,29.00
2023-04-16T10:49:58.217Z,25.80
2023-04-16T10:50:58.196Z,26.90
2023-04-16T10:51:58.225Z,23.10
2023-04-16T10:52:58.173Z,28.00
2023-04-16T10:53:58.166Z,25.60
2023-04-16T10:54:58.189Z,27.50
2023-04-16T10:55:58.132Z,25.00
2023-04-16T10:56:58.170Z,24.20
2023-04-16T10:57:58.143Z,28.30
2023-04-16T10:58:58.127Z,26.30
2023-04-16T10:59:58.081Z,21.60
2023-04-16T11:00:58.070Z,26.70
2023-04-16T11:01:58.140Z,22.20
2023-04-16T11:02:58.242Z,24.80
2023-04-16T11:03:58.243Z,25.40
2023-04-16T11:04:58.150Z,22.90
2023-04-16T11:05:58.004Z,24.10
2023-04-16T11:06:58.017Z,23.70
2023-04-16T11:07:57.982Z,26.40
2023-04-16T11:08:57.967Z,25.50
2023-04-16T11:09:58.011Z,21.20
2023-04-16T11:10:57.944Z,24.90
2023-04-16T11:11:57.930Z,22.20
2023-04-16T11:12:57.914Z,22.00
2023-04-16T11:13:57.943Z,23.90
2023-04-16T11:14:57.893Z,21.70
2023-04-16T11:15:57.939Z,20.50
2023-04-16T11:16:57.907Z,26.70
2023-04-16T11:17:57.918Z,21.50
2023-04-16T11:18:57.857Z,25.20
2023-04-16T11:19:57.848Z,24.10
2023-04-16T11:20:57.865Z,21.50
2023-04-16T11:21:57.807Z,24.90
2023-04-16T11:22:57.834Z,20.60
2023-04-16T11:23:57.782Z,24.40
2023-04-16T11:24:57.787Z,21.60
2023-04-16T11:25:57.762Z,22.40
2023-04-16T11:26:57.790Z,21.70
2023-04-16T11:27:57.732Z,21.00
2023-04-16T11:28:57.730Z,18.90
2023-04-16T11:29:57.723Z,23.90
2023-04-16T11:30:57.742Z,20.40
2023-04-16T11:31:57.679Z,23.20
2023-04-16T11:32:57.721Z,25.60
2023-04-16T11:33:57.693Z,19.70
2023-04-16T11:34:57.654Z,19.50
2023-04-16T11:35:57.637Z,20.20
2023-04-16T11:36:57.622Z,21.00
2023-04-16T11:37:57.849Z,22.70
2023-04-16T11:38:57.619Z,24.10
2023-04-16T11:39:57.638Z,20.30
2023-04-16T11:40:57.566Z,20.50
2023-04-16T11:41:57.578Z,23.20
2023-04-16T11:42:58.676Z,18.60
2023-04-16T11:43:57.574Z,21.80
2023-04-16T11:44:57.522Z,19.00
2023-04-16T11:45:57.572Z,20.80
2023-04-16T11:46:57.504Z,21.70
2023-04-16T11:47:57.520Z,20.60
2023-04-16T11:48:57.471Z,22.50
2023-04-16T11:49:57.449Z,21.40
2023-04-16T11:50:57.498Z,19.40
2023-04-16T11:51:57.440Z,17.00
2023-04-16T11:52:57.436Z,25.50
2023-04-16T11:53:57.427Z,23.40
2023-04-16T11:54:57.400Z,20.70
2023-04-16T11:55:57.383Z,18.80
2023-04-16T11:56:57.372Z,21.10
2023-04-16T11:57:57.351Z,20.60
2023-04-16T11:58:57.407Z,19.80
2023-04-16T12:00:02.067Z,23.00
2023-04-16T12:00:58.333Z,18.30
2023-04-16T12:01:57.349Z,21.90
2023-04-16T12:02:57.450Z,20.70
2023-04-16T12:03:57.672Z,24.50
2023-04-16T12:04:57.334Z,22.70
2023-04-16T12:05:57.254Z,21.10
2023-04-16T12:06:57.245Z,25.10
2023-04-16T12:07:57.227Z,23.20
2023-04-16T12:08:57.239Z,18.30
2023-04-16T12:09:57.245Z,18.70
2023-04-16T12:10:57.206Z,20.00
2023-04-16T12:11:57.196Z,21.60
2023-04-16T12:12:57.164Z,22.10
2023-04-16T12:13:57.152Z,22.70
2023-04-16T12:14:57.159Z,20.60
2023-04-16T12:15:57.149Z,26.00
2023-04-16T12:16:57.157Z,23.10
2023-04-16T12:17:57.152Z,23.00
2023-04-16T12:18:57.117Z,22.10
2023-04-16T12:19:57.092Z,20.40
2023-04-16T12:20:57.083Z,25.70
2023-04-16T12:21:57.071Z,20.90
2023-04-16T12:22:57.053Z,21.50
2023-04-16T12:23:57.031Z,23.30
2023-04-16T12:24:57.049Z,22.80
2023-04-16T12:25:57.029Z,21.40
2023-04-16T12:26:56.987Z,20.30
2023-04-16T12:27:56.986Z,25.70
2023-04-16T12:28:56.952Z,28.90
2023-04-16T12:29:56.990Z,24.20
2023-04-16T12:30:57.002Z,20.00
2023-04-16T12:31:56.940Z,20.80
2023-04-16T12:32:59.055Z,21.40
2023-04-16T12:33:56.894Z,20.70
2023-04-16T12:34:56.906Z,24.20
2023-04-16T12:35:56.926Z,20.20
2023-04-16T12:36:56.881Z,21.80
2023-04-16T12:37:56.856Z,24.30
2023-04-16T12:38:56.858Z,21.40
2023-04-16T12:39:56.855Z,21.20
2023-04-16T12:40:57.317Z,18.20
2023-04-16T12:41:57.014Z,22.10
2023-04-16T12:42:56.847Z,21.80
2023-04-16T12:43:56.788Z,22.20
2023-04-16T12:44:56.769Z,21.20
2023-04-16T12:45:56.786Z,20.80
2023-04-16T12:46:56.758Z,19.40
2023-04-16T12:47:56.748Z,23.30
2023-04-16T12:48:56.717Z,23.90
2023-04-16T12:49:56.699Z,21.90
2023-04-16T12:50:56.685Z,24.90
2023-04-16T12:51:56.705Z,24.90
2023-04-16T12:52:56.668Z,26.20
2023-04-16T12:53:56.647Z,25.00